sensor_id;sensor_type;location;lat;lon;timestamp;pressure;altitude;pressure_sealevel;temperature;humidity
6680;BME280;3376;42.664;23.346;2023-02-26T00:02:08;93398.66;;;14.82;48.21
6680;BME280;3376;42.664;23.346;2023-02-26T00:04:35;93404.66;;;14.83;47.79
6680;BME280;3376;42.664;23.346;2023-02-26T00:07:02;93391.84;;;14.81;47.77
6680;BME280;3376;42.664;23.346;2023-02-26T00:09:30;93401.28;;;14.82;46.89
6680;BME280;3376;42.664;23.346;2023-02-26T00:11:57;93398.88;;;14.69;46.96
6680;BME280;3376;42.664;23.346;2023-02-26T00:14:25;93391.97;;;14.75;46.15
6680;BME280;3376;42.664;23.346;2023-02-26T00:17:05;93401.06;;;14.72;47.03
6680;BME280;3376;42.664;23.346;2023-02-26T00:19:36;93374.78;;;14.39;47.64
6680;BME280;3376;42.664;23.346;2023-02-26T00:22:03;93375.31;;;14.64;47.60
6680;BME280;3376;42.664;23.346;2023-02-26T00:24:30;93398.44;;;14.72;46.97
6680;BME280;3376;42.664;23.346;2023-02-26T00:26:57;93340.44;;;14.42;47.24
6680;BME280;3376;42.664;23.346;2023-02-26T00:29:26;93370.34;;;14.63;47.47
6680;BME280;3376;42.664;23.346;2023-02-26T00:31:53;93388.00;;;14.61;47.68
6680;BME280;3376;42.664;23.346;2023-02-26T00:34:20;93387.34;;;14.65;46.47
6680;BME280;3376;42.664;23.346;2023-02-26T00:36:56;93382.13;;;14.65;46.48
6680;BME280;3376;42.664;23.346;2023-02-26T00:39:35;93360.16;;;14.61;45.57
6680;BME280;3376;42.664;23.346;2023-02-26T00:42:03;93383.59;;;14.61;46.14
6680;BME280;3376;42.664;23.346;2023-02-26T00:44:31;93343.63;;;14.44;47.01
6680;BME280;3376;42.664;23.346;2023-02-26T00:47:02;93364.69;;;14.54;46.26
6680;BME280;3376;42.664;23.346;2023-02-26T00:49:48;93356.06;;;14.42;45.86
6680;BME280;3376;42.664;23.346;2023-02-26T00:52:26;93350.41;;;14.57;45.73
6680;BME280;3376;42.664;23.346;2023-02-26T00:54:54;93345.28;;;14.50;44.89
6680;BME280;3376;42.664;23.346;2023-02-26T00:57:21;93352.44;;;14.55;45.48
6680;BME280;3376;42.664;23.346;2023-02-26T00:59:47;93364.44;;;14.56;45.38
6680;BME280;3376;42.664;23.346;2023-02-26T01:02:14;93355.41;;;14.58;45.26
6680;BME280;3376;42.664;23.346;2023-02-26T01:04:41;93357.78;;;14.60;45.59
6680;BME280;3376;42.664;23.346;2023-02-26T01:07:09;93332.16;;;14.45;45.54
6680;BME280;3376;42.664;23.346;2023-02-26T01:09:37;93349.28;;;14.53;44.61
6680;BME280;3376;42.664;23.346;2023-02-26T01:12:07;93312.69;;;14.36;45.28
6680;BME280;3376;42.664;23.346;2023-02-26T01:14:36;93335.13;;;14.60;43.36
6680;BME280;3376;42.664;23.346;2023-02-26T01:17:13;93344.97;;;14.58;43.53
6680;BME280;3376;42.664;23.346;2023-02-26T01:19:45;93326.03;;;14.63;43.72
6680;BME280;3376;42.664;23.346;2023-02-26T01:22:17;93309.69;;;14.67;43.69
6680;BME280;3376;42.664;23.346;2023-02-26T01:24:48;93290.22;;;14.70;43.41
6680;BME280;3376;42.664;23.346;2023-02-26T01:27:18;93326.34;;;14.78;43.35
6680;BME280;3376;42.664;23.346;2023-02-26T01:29:45;93321.69;;;14.80;42.78
6680;BME280;3376;42.664;23.346;2023-02-26T01:32:16;93298.31;;;14.85;42.98
6680;BME280;3376;42.664;23.346;2023-02-26T01:34:48;93294.19;;;14.72;43.99
6680;BME280;3376;42.664;23.346;2023-02-26T01:37:25;93300.16;;;14.73;43.59
6680;BME280;3376;42.664;23.346;2023-02-26T01:40:17;93260.41;;;14.77;43.24
6680;BME280;3376;42.664;23.346;2023-02-26T01:42:51;93287.22;;;14.78;44.00
6680;BME280;3376;42.664;23.346;2023-02-26T01:45:27;93295.09;;;14.66;43.97
6680;BME280;3376;42.664;23.346;2023-02-26T01:48:01;93271.53;;;14.61;43.55
6680;BME280;3376;42.664;23.346;2023-02-26T01:50:32;93199.19;;;14.40;43.94
6680;BME280;3376;42.664;23.346;2023-02-26T01:53:21;93301.44;;;14.59;43.16
6680;BME280;3376;42.664;23.346;2023-02-26T01:55:53;93275.03;;;14.67;41.64
6680;BME280;3376;42.664;23.346;2023-02-26T01:58:22;93284.19;;;14.69;41.79
6680;BME280;3376;42.664;23.346;2023-02-26T02:00:50;93261.19;;;14.66;41.95
6680;BME280;3376;42.664;23.346;2023-02-26T02:03:18;93239.13;;;14.57;42.30
6680;BME280;3376;42.664;23.346;2023-02-26T02:05:49;93211.31;;;14.23;42.44
6680;BME280;3376;42.664;23.346;2023-02-26T02:08:17;93282.75;;;14.62;43.11
6680;BME280;3376;42.664;23.346;2023-02-26T02:10:46;93246.59;;;14.65;43.90
6680;BME280;3376;42.664;23.346;2023-02-26T02:13:25;93270.41;;;14.57;42.78
6680;BME280;3376;42.664;23.346;2023-02-26T02:15:58;93266.44;;;14.55;43.63
6680;BME280;3376;42.664;23.346;2023-02-26T02:18:37;93255.22;;;14.54;41.56
6680;BME280;3376;42.664;23.346;2023-02-26T02:21:27;93276.75;;;14.61;41.67
6680;BME280;3376;42.664;23.346;2023-02-26T02:23:58;93264.63;;;14.55;42.29
6680;BME280;3376;42.664;23.346;2023-02-26T02:27:01;93274.69;;;14.63;41.66
6680;BME280;3376;42.664;23.346;2023-02-26T02:29:49;93287.38;;;14.71;42.38
6680;BME280;3376;42.664;23.346;2023-02-26T02:32:25;93258.41;;;14.56;42.52
6680;BME280;3376;42.664;23.346;2023-02-26T02:34:58;93268.16;;;14.49;41.66
6680;BME280;3376;42.664;23.346;2023-02-26T02:37:33;93247.88;;;14.51;40.68
6680;BME280;3376;42.664;23.346;2023-02-26T02:40:04;93273.22;;;14.56;41.28
6680;BME280;3376;42.664;23.346;2023-02-26T02:42:34;93287.75;;;14.52;40.91
6680;BME280;3376;42.664;23.346;2023-02-26T02:45:07;93273.22;;;14.56;40.89
6680;BME280;3376;42.664;23.346;2023-02-26T02:47:39;93276.06;;;14.54;40.83
6680;BME280;3376;42.664;23.346;2023-02-26T02:50:11;93275.63;;;14.46;42.30
6680;BME280;3376;42.664;23.346;2023-02-26T02:52:42;93294.00;;;14.39;42.32
6680;BME280;3376;42.664;23.346;2023-02-26T02:55:13;93287.19;;;14.38;41.98
6680;BME280;3376;42.664;23.346;2023-02-26T02:57:44;93294.69;;;14.46;41.29
6680;BME280;3376;42.664;23.346;2023-02-26T03:00:15;93260.25;;;14.33;40.92
6680;BME280;3376;42.664;23.346;2023-02-26T03:02:48;93319.34;;;14.55;40.46
6680;BME280;3376;42.664;23.346;2023-02-26T03:05:16;93269.38;;;14.47;40.45
6680;BME280;3376;42.664;23.346;2023-02-26T03:07:46;93279.28;;;14.45;40.60
6680;BME280;3376;42.664;23.346;2023-02-26T03:10:14;93283.22;;;14.47;40.81
6680;BME280;3376;42.664;23.346;2023-02-26T03:12:42;93294.78;;;14.51;40.90
6680;BME280;3376;42.664;23.346;2023-02-26T03:15:09;93302.25;;;14.59;40.15
6680;BME280;3376;42.664;23.346;2023-02-26T03:17:46;93256.59;;;14.45;39.33
6680;BME280;3376;42.664;23.346;2023-02-26T03:20:21;93243.72;;;14.27;39.91
6680;BME280;3376;42.664;23.346;2023-02-26T03:22:56;93241.69;;;14.29;39.71
6680;BME280;3376;42.664;23.346;2023-02-26T03:25:28;93277.09;;;14.53;39.90
6680;BME280;3376;42.664;23.346;2023-02-26T03:28:02;93288.06;;;14.55;39.60
6680;BME280;3376;42.664;23.346;2023-02-26T03:30:34;93288.63;;;14.57;39.94
6680;BME280;3376;42.664;23.346;2023-02-26T03:33:07;93290.00;;;14.60;39.76
6680;BME280;3376;42.664;23.346;2023-02-26T03:35:43;93267.91;;;14.51;39.98
6680;BME280;3376;42.664;23.346;2023-02-26T03:38:15;93280.47;;;14.54;39.69
6680;BME280;3376;42.664;23.346;2023-02-26T03:40:46;93278.69;;;14.54;39.74
6680;BME280;3376;42.664;23.346;2023-02-26T03:43:19;93275.16;;;14.49;39.95
6680;BME280;3376;42.664;23.346;2023-02-26T03:45:51;93273.84;;;14.46;39.88
6680;BME280;3376;42.664;23.346;2023-02-26T03:48:24;93272.22;;;14.45;40.09
6680;BME280;3376;42.664;23.346;2023-02-26T03:50:55;93245.88;;;14.30;40.01
6680;BME280;3376;42.664;23.346;2023-02-26T03:53:27;93271.34;;;14.40;40.60
6680;BME280;3376;42.664;23.346;2023-02-26T03:56:05;93262.59;;;14.46;40.32
6680;BME280;3376;42.664;23.346;2023-02-26T03:58:33;93275.41;;;14.47;40.27
6680;BME280;3376;42.664;23.346;2023-02-26T04:01:03;93276.06;;;14.54;39.96
6680;BME280;3376;42.664;23.346;2023-02-26T04:03:37;93263.41;;;14.46;40.18
6680;BME280;3376;42.664;23.346;2023-02-26T04:06:06;93260.00;;;14.46;40.46
6680;BME280;3376;42.664;23.346;2023-02-26T04:08:33;93262.94;;;14.49;39.84
6680;BME280;3376;42.664;23.346;2023-02-26T04:11:05;93069.88;;;13.32;39.95
6680;BME280;3376;42.664;23.346;2023-02-26T04:13:33;93230.53;;;14.45;40.34
6680;BME280;3376;42.664;23.346;2023-02-26T04:16:00;93251.16;;;14.47;39.87
6680;BME280;3376;42.664;23.346;2023-02-26T04:18:27;93237.25;;;14.41;40.21
6680;BME280;3376;42.664;23.346;2023-02-26T04:20:55;93249.13;;;14.37;40.51
6680;BME280;3376;42.664;23.346;2023-02-26T04:23:21;93245.88;;;14.30;39.93
6680;BME280;3376;42.664;23.346;2023-02-26T04:25:48;93256.16;;;14.48;39.91
6680;BME280;3376;42.664;23.346;2023-02-26T04:28:15;93214.81;;;14.40;39.86
6680;BME280;3376;42.664;23.346;2023-02-26T04:30:42;93226.50;;;14.38;39.92
6680;BME280;3376;42.664;23.346;2023-02-26T04:33:09;93207.69;;;14.24;40.05
6680;BME280;3376;42.664;23.346;2023-02-26T04:35:36;93241.28;;;14.49;39.58
6680;BME280;3376;42.664;23.346;2023-02-26T04:38:04;93219.69;;;14.37;39.62
6680;BME280;3376;42.664;23.346;2023-02-26T04:40:31;93203.81;;;14.38;39.72
6680;BME280;3376;42.664;23.346;2023-02-26T04:42:57;93198.16;;;14.41;39.04
6680;BME280;3376;42.664;23.346;2023-02-26T04:45:24;93199.13;;;14.63;38.38
6680;BME280;3376;42.664;23.346;2023-02-26T04:47:51;93206.94;;;14.63;38.45
6680;BME280;3376;42.664;23.346;2023-02-26T04:50:18;93218.19;;;14.52;39.02
6680;BME280;3376;42.664;23.346;2023-02-26T04:52:44;93209.16;;;14.43;38.95
6680;BME280;3376;42.664;23.346;2023-02-26T04:55:12;93195.66;;;14.46;38.60
6680;BME280;3376;42.664;23.346;2023-02-26T04:57:39;93210.47;;;14.57;38.72
6680;BME280;3376;42.664;23.346;2023-02-26T05:00:07;93217.72;;;14.55;38.48
6680;BME280;3376;42.664;23.346;2023-02-26T05:02:34;93209.53;;;14.63;39.00
6680;BME280;3376;42.664;23.346;2023-02-26T05:05:01;93193.16;;;14.51;39.28
6680;BME280;3376;42.664;23.346;2023-02-26T05:07:27;93204.03;;;14.48;39.44
6680;BME280;3376;42.664;23.346;2023-02-26T05:09:54;93200.72;;;14.53;39.43
6680;BME280;3376;42.664;23.346;2023-02-26T05:12:23;93170.72;;;14.50;39.66
6680;BME280;3376;42.664;23.346;2023-02-26T05:14:50;93198.41;;;14.40;39.24
6680;BME280;3376;42.664;23.346;2023-02-26T05:17:16;93181.78;;;14.29;38.28
6680;BME280;3376;42.664;23.346;2023-02-26T05:19:43;93200.53;;;14.43;38.32
6680;BME280;3376;42.664;23.346;2023-02-26T05:22:10;93161.00;;;14.46;38.69
6680;BME280;3376;42.664;23.346;2023-02-26T05:24:36;93157.09;;;14.60;37.52
6680;BME280;3376;42.664;23.346;2023-02-26T05:27:03;93209.63;;;14.68;38.22
6680;BME280;3376;42.664;23.346;2023-02-26T05:29:31;93171.84;;;14.54;38.43
6680;BME280;3376;42.664;23.346;2023-02-26T05:31:58;93227.16;;;14.45;38.83
6680;BME280;3376;42.664;23.346;2023-02-26T05:34:25;93200.88;;;14.46;38.81
6680;BME280;3376;42.664;23.346;2023-02-26T05:36:51;93180.69;;;14.53;38.45
6680;BME280;3376;42.664;23.346;2023-02-26T05:39:18;93200.09;;;14.74;37.64
6680;BME280;3376;42.664;23.346;2023-02-26T05:41:45;93176.97;;;14.77;38.30
6680;BME280;3376;42.664;23.346;2023-02-26T05:44:12;93203.47;;;14.74;37.90
6680;BME280;3376;42.664;23.346;2023-02-26T05:46:40;93201.19;;;14.78;37.91
6680;BME280;3376;42.664;23.346;2023-02-26T05:49:07;93199.09;;;14.91;37.90
6680;BME280;3376;42.664;23.346;2023-02-26T05:51:34;93218.25;;;14.97;36.96
6680;BME280;3376;42.664;23.346;2023-02-26T05:54:00;93182.63;;;15.02;36.67
6680;BME280;3376;42.664;23.346;2023-02-26T05:56:27;93197.88;;;15.10;36.49
6680;BME280;3376;42.664;23.346;2023-02-26T05:58:54;93298.19;;;15.03;36.41
6680;BME280;3376;42.664;23.346;2023-02-26T06:01:20;93249.91;;;15.17;36.48
6680;BME280;3376;42.664;23.346;2023-02-26T06:03:48;93202.50;;;15.20;36.27
6680;BME280;3376;42.664;23.346;2023-02-26T06:06:15;93218.50;;;15.12;36.18
6680;BME280;3376;42.664;23.346;2023-02-26T06:08:43;93202.72;;;15.18;36.21
6680;BME280;3376;42.664;23.346;2023-02-26T06:11:10;93207.16;;;15.18;36.25
6680;BME280;3376;42.664;23.346;2023-02-26T06:13:37;93235.13;;;15.22;36.48
6680;BME280;3376;42.664;23.346;2023-02-26T06:16:04;93210.25;;;15.31;35.83
6680;BME280;3376;42.664;23.346;2023-02-26T06:18:31;93240.34;;;15.51;35.73
6680;BME280;3376;42.664;23.346;2023-02-26T06:20:59;93223.56;;;15.63;35.04
6680;BME280;3376;42.664;23.346;2023-02-26T06:23:26;93203.47;;;15.64;34.89
6680;BME280;3376;42.664;23.346;2023-02-26T06:25:53;93220.34;;;15.73;35.04
6680;BME280;3376;42.664;23.346;2023-02-26T06:28:20;93203.78;;;15.84;34.47
6680;BME280;3376;42.664;23.346;2023-02-26T06:30:48;93087.25;;;15.06;35.04
6680;BME280;3376;42.664;23.346;2023-02-26T06:33:17;93207.94;;;16.01;34.16
6680;BME280;3376;42.664;23.346;2023-02-26T06:35:44;93194.78;;;15.75;34.52
6680;BME280;3376;42.664;23.346;2023-02-26T06:38:12;93236.06;;;16.11;33.79
6680;BME280;3376;42.664;23.346;2023-02-26T06:40:39;93192.56;;;16.21;34.29
6680;BME280;3376;42.664;23.346;2023-02-26T06:43:06;93194.50;;;16.31;34.26
6680;BME280;3376;42.664;23.346;2023-02-26T06:45:33;93188.59;;;16.40;33.73
6680;BME280;3376;42.664;23.346;2023-02-26T06:48:00;93196.03;;;16.70;33.31
6680;BME280;3376;42.664;23.346;2023-02-26T06:50:27;93224.31;;;16.73;32.49
6680;BME280;3376;42.664;23.346;2023-02-26T06:52:54;93163.81;;;16.43;32.79
6680;BME280;3376;42.664;23.346;2023-02-26T06:55:22;93207.91;;;16.56;32.29
6680;BME280;3376;42.664;23.346;2023-02-26T06:57:51;93166.06;;;16.56;32.36
6680;BME280;3376;42.664;23.346;2023-02-26T07:00:18;93197.66;;;16.71;32.57
6680;BME280;3376;42.664;23.346;2023-02-26T07:02:45;93150.06;;;16.74;31.83
6680;BME280;3376;42.664;23.346;2023-02-26T07:05:12;93157.41;;;16.77;31.70
6680;BME280;3376;42.664;23.346;2023-02-26T07:07:38;93177.97;;;17.17;31.93
6680;BME280;3376;42.664;23.346;2023-02-26T07:10:06;93187.16;;;17.24;31.48
6680;BME280;3376;42.664;23.346;2023-02-26T07:12:34;93154.41;;;17.17;31.46
6680;BME280;3376;42.664;23.346;2023-02-26T07:15:03;93129.00;;;16.86;32.06
6680;BME280;3376;42.664;23.346;2023-02-26T07:17:30;93106.88;;;16.72;31.64
6680;BME280;3376;42.664;23.346;2023-02-26T07:19:57;93110.00;;;17.27;31.16
6680;BME280;3376;42.664;23.346;2023-02-26T07:22:30;93138.22;;;17.51;31.86
6680;BME280;3376;42.664;23.346;2023-02-26T07:24:57;93139.31;;;17.60;30.93
6680;BME280;3376;42.664;23.346;2023-02-26T07:27:25;93130.19;;;17.63;30.36
6680;BME280;3376;42.664;23.346;2023-02-26T07:29:53;93171.56;;;17.34;31.26
6680;BME280;3376;42.664;23.346;2023-02-26T07:32:20;93107.81;;;17.14;30.98
6680;BME280;3376;42.664;23.346;2023-02-26T07:34:47;93053.03;;;17.07;31.00
6680;BME280;3376;42.664;23.346;2023-02-26T07:37:14;93154.31;;;17.38;30.78
6680;BME280;3376;42.664;23.346;2023-02-26T07:39:41;93160.00;;;17.62;30.90
6680;BME280;3376;42.664;23.346;2023-02-26T07:42:07;93169.69;;;17.56;30.54
6680;BME280;3376;42.664;23.346;2023-02-26T07:44:34;93155.63;;;17.73;30.36
6680;BME280;3376;42.664;23.346;2023-02-26T07:47:03;93151.59;;;17.97;30.08
6680;BME280;3376;42.664;23.346;2023-02-26T07:49:30;93144.00;;;17.95;30.01
6680;BME280;3376;42.664;23.346;2023-02-26T07:51:58;93166.16;;;18.19;29.70
6680;BME280;3376;42.664;23.346;2023-02-26T07:54:25;93192.41;;;18.29;29.22
6680;BME280;3376;42.664;23.346;2023-02-26T07:56:52;93170.47;;;17.94;29.85
6680;BME280;3376;42.664;23.346;2023-02-26T07:59:18;93154.78;;;18.04;29.70
6680;BME280;3376;42.664;23.346;2023-02-26T08:01:45;93170.38;;;18.25;29.33
6680;BME280;3376;42.664;23.346;2023-02-26T08:04:14;93185.38;;;18.35;28.62
6680;BME280;3376;42.664;23.346;2023-02-26T08:06:40;93152.19;;;18.09;29.16
6680;BME280;3376;42.664;23.346;2023-02-26T08:09:07;93186.19;;;17.94;29.62
6680;BME280;3376;42.664;23.346;2023-02-26T08:11:34;93197.44;;;17.89;29.64
6680;BME280;3376;42.664;23.346;2023-02-26T08:14:04;93209.25;;;17.60;29.29
6680;BME280;3376;42.664;23.346;2023-02-26T08:16:30;93171.56;;;17.66;30.13
6680;BME280;3376;42.664;23.346;2023-02-26T08:18:57;93164.91;;;17.85;29.81
6680;BME280;3376;42.664;23.346;2023-02-26T08:21:25;93146.28;;;17.82;29.91
6680;BME280;3376;42.664;23.346;2023-02-26T08:23:52;93188.22;;;17.87;29.84
6680;BME280;3376;42.664;23.346;2023-02-26T08:26:19;93166.56;;;17.96;29.87
6680;BME280;3376;42.664;23.346;2023-02-26T08:28:46;93171.09;;;18.11;29.44
6680;BME280;3376;42.664;23.346;2023-02-26T08:31:12;93175.41;;;18.32;29.10
6680;BME280;3376;42.664;23.346;2023-02-26T08:33:39;93186.91;;;18.31;29.30
6680;BME280;3376;42.664;23.346;2023-02-26T08:36:07;93202.25;;;18.07;28.92
6680;BME280;3376;42.664;23.346;2023-02-26T08:38:35;93196.91;;;18.34;29.45
6680;BME280;3376;42.664;23.346;2023-02-26T08:41:02;93057.88;;;17.62;29.33
6680;BME280;3376;42.664;23.346;2023-02-26T08:43:29;93188.63;;;18.57;28.78
6680;BME280;3376;42.664;23.346;2023-02-26T08:45:56;93202.53;;;18.52;28.63
6680;BME280;3376;42.664;23.346;2023-02-26T08:48:24;93252.63;;;18.51;28.67
6680;BME280;3376;42.664;23.346;2023-02-26T08:50:51;93241.97;;;18.31;28.20
6680;BME280;3376;42.664;23.346;2023-02-26T08:53:17;93228.75;;;18.11;28.83
6680;BME280;3376;42.664;23.346;2023-02-26T08:55:48;93107.63;;;17.25;29.14
6680;BME280;3376;42.664;23.346;2023-02-26T08:58:15;93249.03;;;18.25;29.02
6680;BME280;3376;42.664;23.346;2023-02-26T09:00:43;93219.38;;;18.20;28.55
6680;BME280;3376;42.664;23.346;2023-02-26T09:03:10;93236.63;;;18.52;28.47
6680;BME280;3376;42.664;23.346;2023-02-26T09:05:37;93229.63;;;18.73;27.79
6680;BME280;3376;42.664;23.346;2023-02-26T09:08:05;93253.22;;;18.68;27.52
6680;BME280;3376;42.664;23.346;2023-02-26T09:10:32;93223.94;;;19.01;27.35
6680;BME280;3376;42.664;23.346;2023-02-26T09:13:01;93271.63;;;19.35;27.05
6680;BME280;3376;42.664;23.346;2023-02-26T09:15:27;93235.31;;;19.27;27.09
6680;BME280;3376;42.664;23.346;2023-02-26T09:17:54;93233.44;;;19.12;27.28
6680;BME280;3376;42.664;23.346;2023-02-26T09:20:21;93222.75;;;19.34;26.63
6680;BME280;3376;42.664;23.346;2023-02-26T09:22:48;93223.28;;;19.51;26.24
6680;BME280;3376;42.664;23.346;2023-02-26T09:25:15;93230.41;;;19.50;26.30
6680;BME280;3376;42.664;23.346;2023-02-26T09:27:42;93207.81;;;20.00;26.24
6680;BME280;3376;42.664;23.346;2023-02-26T09:30:11;93287.19;;;19.86;25.50
6680;BME280;3376;42.664;23.346;2023-02-26T09:32:38;93260.13;;;20.01;25.27
6680;BME280;3376;42.664;23.346;2023-02-26T09:35:05;93232.53;;;20.19;25.38
6680;BME280;3376;42.664;23.346;2023-02-26T09:37:32;93247.72;;;20.62;25.27
6680;BME280;3376;42.664;23.346;2023-02-26T09:39:59;93236.06;;;20.78;24.81
6680;BME280;3376;42.664;23.346;2023-02-26T09:42:53;93228.81;;;21.14;24.66
6680;BME280;3376;42.664;23.346;2023-02-26T09:45:29;93247.78;;;21.11;24.03
6680;BME280;3376;42.664;23.346;2023-02-26T09:47:57;93231.16;;;21.25;24.21
6680;BME280;3376;42.664;23.346;2023-02-26T09:50:34;93229.63;;;21.58;23.32
6680;BME280;3376;42.664;23.346;2023-02-26T09:53:08;93230.06;;;21.70;23.89
6680;BME280;3376;42.664;23.346;2023-02-26T09:55:40;93247.31;;;21.52;23.43
6680;BME280;3376;42.664;23.346;2023-02-26T09:58:13;93195.13;;;21.11;23.79
6680;BME280;3376;42.664;23.346;2023-02-26T10:00:50;93165.66;;;21.03;24.29
6680;BME280;3376;42.664;23.346;2023-02-26T10:03:24;93228.28;;;21.60;24.30
6680;BME280;3376;42.664;23.346;2023-02-26T10:06:10;93224.41;;;21.91;24.60
6680;BME280;3376;42.664;23.346;2023-02-26T10:08:45;93219.81;;;22.31;23.63
6680;BME280;3376;42.664;23.346;2023-02-26T10:11:19;93211.31;;;22.10;23.65
6680;BME280;3376;42.664;23.346;2023-02-26T10:13:51;93227.22;;;22.00;23.98
6680;BME280;3376;42.664;23.346;2023-02-26T10:16:25;93233.47;;;22.38;24.17
6680;BME280;3376;42.664;23.346;2023-02-26T10:18:56;93208.28;;;22.50;23.72
6680;BME280;3376;42.664;23.346;2023-02-26T10:21:31;93219.25;;;22.86;22.94
6680;BME280;3376;42.664;23.346;2023-02-26T10:24:01;93033.34;;;20.83;23.95
6680;BME280;3376;42.664;23.346;2023-02-26T10:26:35;93190.66;;;21.88;24.44
6680;BME280;3376;42.664;23.346;2023-02-26T10:29:13;93238.56;;;22.00;23.99
6680;BME280;3376;42.664;23.346;2023-02-26T10:31:56;93202.59;;;21.81;23.68
6680;BME280;3376;42.664;23.346;2023-02-26T10:34:26;93187.69;;;21.61;24.44
6680;BME280;3376;42.664;23.346;2023-02-26T10:37:02;93189.34;;;21.52;24.61
6680;BME280;3376;42.664;23.346;2023-02-26T10:39:32;93156.50;;;21.68;23.92
6680;BME280;3376;42.664;23.346;2023-02-26T10:42:02;93164.91;;;21.03;24.62
6680;BME280;3376;42.664;23.346;2023-02-26T10:44:35;93122.09;;;20.19;25.28
6680;BME280;3376;42.664;23.346;2023-02-26T10:47:12;93157.78;;;20.35;25.68
6680;BME280;3376;42.664;23.346;2023-02-26T10:49:51;93173.31;;;20.26;25.86
6680;BME280;3376;42.664;23.346;2023-02-26T10:52:21;93174.19;;;19.86;26.35
6680;BME280;3376;42.664;23.346;2023-02-26T10:55:02;93181.00;;;19.77;26.60
6680;BME280;3376;42.664;23.346;2023-02-26T10:57:34;93163.66;;;19.71;26.56
6680;BME280;3376;42.664;23.346;2023-02-26T11:00:02;93182.56;;;19.88;26.54
6680;BME280;3376;42.664;23.346;2023-02-26T11:02:36;93157.09;;;19.64;26.46
6680;BME280;3376;42.664;23.346;2023-02-26T11:05:06;93120.28;;;19.19;26.94
6680;BME280;3376;42.664;23.346;2023-02-26T11:07:35;93183.88;;;19.61;27.27
6680;BME280;3376;42.664;23.346;2023-02-26T11:10:05;93030.78;;;18.80;27.16
6680;BME280;3376;42.664;23.346;2023-02-26T11:12:38;93144.22;;;19.82;27.31
6680;BME280;3376;42.664;23.346;2023-02-26T11:15:10;93145.78;;;19.78;27.19
6680;BME280;3376;42.664;23.346;2023-02-26T11:17:39;93116.13;;;19.38;27.57
6680;BME280;3376;42.664;23.346;2023-02-26T11:20:14;93086.38;;;18.72;27.91
6680;BME280;3376;42.664;23.346;2023-02-26T11:22:45;93119.34;;;18.43;28.33
6680;BME280;3376;42.664;23.346;2023-02-26T11:25:16;93133.13;;;18.18;29.33
6680;BME280;3376;42.664;23.346;2023-02-26T11:27:43;93155.91;;;18.13;29.37
6680;BME280;3376;42.664;23.346;2023-02-26T11:30:15;93157.94;;;18.06;30.02
6680;BME280;3376;42.664;23.346;2023-02-26T11:32:45;93155.03;;;18.02;30.22
6680;BME280;3376;42.664;23.346;2023-02-26T11:35:17;93159.09;;;18.25;29.99
6680;BME280;3376;42.664;23.346;2023-02-26T11:37:47;93181.59;;;18.16;30.36
6680;BME280;3376;42.664;23.346;2023-02-26T11:40:17;93169.91;;;17.92;30.90
6680;BME280;3376;42.664;23.346;2023-02-26T11:42:49;93181.75;;;17.94;30.66
6680;BME280;3376;42.664;23.346;2023-02-26T11:45:19;93186.94;;;17.89;30.36
6680;BME280;3376;42.664;23.346;2023-02-26T11:47:49;93198.00;;;17.96;31.42
6680;BME280;3376;42.664;23.346;2023-02-26T11:50:20;93210.34;;;18.01;30.70
6680;BME280;3376;42.664;23.346;2023-02-26T11:52:54;93227.38;;;18.03;30.64
6680;BME280;3376;42.664;23.346;2023-02-26T11:55:26;93254.75;;;17.81;30.68
6680;BME280;3376;42.664;23.346;2023-02-26T11:57:55;93245.16;;;17.96;30.38
6680;BME280;3376;42.664;23.346;2023-02-26T12:00:24;93249.03;;;18.25;28.97
6680;BME280;3376;42.664;23.346;2023-02-26T12:02:57;93212.19;;;18.42;30.94
6680;BME280;3376;42.664;23.346;2023-02-26T12:05:26;93224.06;;;18.59;30.41
6680;BME280;3376;42.664;23.346;2023-02-26T12:07:53;93232.09;;;18.43;30.42
6680;BME280;3376;42.664;23.346;2023-02-26T12:10:23;93218.63;;;18.76;30.71
6680;BME280;3376;42.664;23.346;2023-02-26T12:13:00;93228.59;;;18.74;30.96
6680;BME280;3376;42.664;23.346;2023-02-26T12:15:45;93232.34;;;19.03;31.18
6680;BME280;3376;42.664;23.346;2023-02-26T12:18:37;93234.44;;;18.96;32.28
6680;BME280;3376;42.664;23.346;2023-02-26T12:21:16;93234.97;;;18.93;32.21
6680;BME280;3376;42.664;23.346;2023-02-26T12:24:07;93236.00;;;18.92;32.24
6680;BME280;3376;42.664;23.346;2023-02-26T12:26:42;93239.22;;;19.09;31.94
6680;BME280;3376;42.664;23.346;2023-02-26T12:29:28;93248.13;;;19.08;32.66
6680;BME280;3376;42.664;23.346;2023-02-26T12:38:03;93240.84;;;18.58;35.74
6680;BME280;3376;42.664;23.346;2023-02-26T12:40:49;93243.28;;;18.75;35.02
6680;BME280;3376;42.664;23.346;2023-02-26T12:43:28;93258.88;;;19.02;35.10
6680;BME280;3376;42.664;23.346;2023-02-26T12:46:03;93266.31;;;19.25;33.98
6680;BME280;3376;42.664;23.346;2023-02-26T12:48:46;93271.91;;;19.53;34.09
6680;BME280;3376;42.664;23.346;2023-02-26T12:51:28;93256.44;;;19.72;30.39
6680;BME280;3376;42.664;23.346;2023-02-26T12:54:20;93261.41;;;19.73;30.46
6680;BME280;3376;42.664;23.346;2023-02-26T12:57:26;93265.78;;;19.23;31.04
6680;BME280;3376;42.664;23.346;2023-02-26T13:00:15;93271.78;;;19.18;31.21
6680;BME280;3376;42.664;23.346;2023-02-26T13:06:24;93282.28;;;18.61;31.54
6680;BME280;3376;42.664;23.346;2023-02-26T13:09:01;93278.03;;;18.45;32.06
6680;BME280;3376;42.664;23.346;2023-02-26T13:11:46;93267.13;;;18.27;32.48
6680;BME280;3376;42.664;23.346;2023-02-26T13:14:26;93268.06;;;18.11;33.17
6680;BME280;3376;42.664;23.346;2023-02-26T13:17:00;93303.75;;;18.17;32.84
6680;BME280;3376;42.664;23.346;2023-02-26T13:19:35;93263.97;;;18.25;34.26
6680;BME280;3376;42.664;23.346;2023-02-26T13:22:15;93281.25;;;18.26;32.72
6680;BME280;3376;42.664;23.346;2023-02-26T13:24:46;93307.84;;;18.39;33.43
6680;BME280;3376;42.664;23.346;2023-02-26T13:27:16;93290.13;;;18.56;33.61
6680;BME280;3376;42.664;23.346;2023-02-26T13:29:47;93274.53;;;18.77;32.55
6680;BME280;3376;42.664;23.346;2023-02-26T13:32:17;93284.59;;;19.05;31.87
6680;BME280;3376;42.664;23.346;2023-02-26T13:34:51;93263.47;;;19.36;33.58
6680;BME280;3376;42.664;23.346;2023-02-26T13:37:25;93265.09;;;19.82;33.75
6680;BME280;3376;42.664;23.346;2023-02-26T13:40:03;93255.91;;;20.30;33.96